Time;durP1;ratioP1;P1;durP2;ratioP2;P2;SDS_P1;SDS_P2;PMS_P1;PMS_P2;Temp;Humidity;BMP_temperature;BMP_pressure;BME280_temperature;BME280_humidity;BME280_pressure;Samples;Min_cycle;Max_cycle;Signal;HPM_P1;HPM_P2
2023/10/06 09:40:32;;;;;;;12.52;7.30;;;;;;;20.74;48.83;95400.19;3551408;28;18942646;-73
2023/10/06 09:42:37;;;;;;;18.38;7.55;;;;;;;20.71;48.84;95395.25;4202037;28;20153;-74
2023/10/06 09:44:41;;;;;;;15.47;7.83;;;;;;;20.72;48.89;95396.09;4206040;28;20056;-75
2023/10/06 09:46:45;;;;;;;15.05;7.35;;;;;;;20.77;48.70;95402.44;4206838;28;20055;-75
2023/10/06 09:48:51;;;;;;;11.35;7.38;;;;;;;20.70;48.97;95393.63;4197971;28;20771;-73
2023/10/06 09:50:54;;;;;;;17.40;7.72;;;;;;;20.71;49.06;95394.44;4202882;28;20597;-74
2023/10/06 09:52:57;;;;;;;16.65;8.70;;;;;;;20.01;50.24;95400.88;4216556;28;20063;-74
2023/10/06 09:55:04;;;;;;;23.15;11.07;;;;;;;19.54;51.36;95407.00;4204787;28;20106;-74
2023/10/06 09:57:06;;;;;;;19.92;10.63;;;;;;;19.42;51.99;95399.59;4201500;28;20483;-74
2023/10/06 09:59:13;;;;;;;24.35;9.30;;;;;;;19.41;52.03;95397.13;4192402;28;20073;-74
2023/10/06 10:01:16;;;;;;;21.27;8.82;;;;;;;19.51;51.73;95408.22;4207522;28;20055;-73
2023/10/06 10:03:18;;;;;;;13.85;8.88;;;;;;;19.59;51.58;95402.72;4187838;28;20118;-74
2023/10/06 10:05:22;;;;;;;;;;;;;;;19.52;51.11;95390.44;4218144;28;20052;-73
2023/10/06 10:07:24;;;;;;;18.30;8.00;;;;;;;19.36;51.60;95395.06;4236485;28;19994;-74
2023/10/06 10:09:28;;;;;;;13.20;7.93;;;;;;;19.62;50.92;95405.00;4206851;28;20052;-75
2023/10/06 10:11:39;;;;;;;17.25;8.27;;;;;;;19.79;50.27;95400.19;4223319;28;20122;-76
2023/10/06 10:14:11;;;;;;;13.55;7.70;;;;;;;19.98;49.59;95393.31;4225459;28;20047;-74
2023/10/06 10:16:25;;;;;;;10.02;7.05;;;;;;;20.09;49.42;95397.22;4219836;28;20049;-73
2023/10/06 10:18:34;;;;;;;15.20;7.32;;;;;;;20.24;48.98;95381.06;4217616;28;20047;-74
2023/10/06 10:20:38;;;;;;;16.83;7.40;;;;;;;20.20;48.64;95385.19;4219559;28;20075;-75
2023/10/06 10:22:41;;;;;;;13.70;7.63;;;;;;;20.12;48.34;95382.69;4188931;28;20079;-73
2023/10/06 10:24:44;;;;;;;16.95;8.20;;;;;;;19.74;49.69;95384.00;4207230;28;20098;-73
2023/10/06 10:26:53;;;;;;;12.80;7.60;;;;;;;19.92;48.85;95378.16;4189527;28;20056;-74
2023/10/06 10:29:13;;;;;;;15.63;7.65;;;;;;;20.02;48.58;95375.09;4217353;28;20062;-74
2023/10/06 10:31:18;;;;;;;19.45;8.02;;;;;;;19.83;48.58;95380.19;4225173;28;20052;-74
2023/10/06 10:33:21;;;;;;;21.17;10.30;;;;;;;19.30;49.67;95381.75;4219010;28;20100;-73
2023/10/06 10:35:23;;;;;;;16.35;8.20;;;;;;;19.57;49.20;95374.72;4203639;28;20629;-75
2023/10/06 10:37:30;;;;;;;14.35;8.20;;;;;;;19.78;48.47;95368.50;4221033;28;20161;-73
2023/10/06 10:39:52;;;;;;;12.43;7.85;;;;;;;19.46;48.88;95362.81;4219043;28;20131;-75
2023/10/06 10:41:58;;;;;;;17.10;8.10;;;;;;;19.61;48.54;95366.13;4198799;28;20044;-73
2023/10/06 10:44:08;;;;;;;14.85;7.18;;;;;;;19.78;47.89;95366.66;4202686;28;20058;-74
2023/10/06 10:46:42;;;;;;;10.32;7.13;;;;;;;20.00;47.49;95350.53;4210111;28;20047;-73
2023/10/06 10:48:50;;;;;;;11.93;6.85;;;;;;;20.08;46.96;95354.88;4219880;28;20070;-73
2023/10/06 10:51:23;;;;;;;11.65;7.03;;;;;;;20.25;46.42;95348.94;4223203;28;20055;-74
2023/10/06 10:53:32;;;;;;;11.32;6.90;;;;;;;20.38;46.19;95340.16;4191639;28;20582;-73
2023/10/06 10:55:35;;;;;;;13.70;7.25;;;;;;;20.24;46.31;95346.47;4221350;28;20071;-75
2023/10/06 10:57:57;;;;;;;10.93;6.88;;;;;;;20.30;46.00;95344.84;4202510;28;20052;-75
2023/10/06 11:00:12;;;;;;;13.48;6.30;;;;;;;20.41;45.24;95345.09;4204020;28;20048;-75
2023/10/06 11:02:15;;;;;;;7.95;5.63;;;;;;;20.45;44.68;95340.97;4203729;28;20446;-75
2023/10/06 11:04:35;;;;;;;13.40;6.22;;;;;;;20.60;44.63;95332.00;4181519;28;20115;-74
2023/10/06 11:06:38;;;;;;;10.43;5.90;;;;;;;20.73;44.15;95331.97;4201302;28;20242;-76
2023/10/06 11:08:40;;;;;;;14.15;6.40;;;;;;;20.79;43.92;95335.66;4208857;28;20411;-74
2023/10/06 11:10:42;;;;;;;12.43;7.13;;;;;;;20.85;43.49;95329.50;4207803;28;20087;-74
2023/10/06 11:12:45;;;;;;;12.60;5.88;;;;;;;20.89;43.34;95319.25;4213463;28;20063;-75
2023/10/06 11:14:49;;;;;;;17.55;6.68;;;;;;;21.03;43.34;95319.00;4224148;28;20044;-75
2023/10/06 11:16:53;;;;;;;;;;;;;;;21.12;42.77;95318.78;4206243;28;20461;-77
2023/10/06 11:18:56;;;;;;;12.15;7.10;;;;;;;21.10;42.68;95318.19;4207510;28;19969;-70
2023/10/06 11:21:01;;;;;;;10.82;5.90;;;;;;;21.14;42.41;95314.06;4221051;28;20050;-75
2023/10/06 11:23:04;;;;;;;14.13;6.25;;;;;;;21.14;42.48;95312.22;4215302;28;20066;-74
2023/10/06 11:25:08;;;;;;;15.82;6.40;;;;;;;21.25;42.21;95310.75;4209755;28;20130;-73
2023/10/06 11:27:22;;;;;;;11.32;5.80;;;;;;;21.29;41.84;95314.63;4218281;28;20091;-75
2023/10/06 11:29:29;;;;;;;7.45;5.30;;;;;;;21.34;41.32;95306.00;4221364;28;20058;-74
2023/10/06 11:31:34;;;;;;;12.30;5.78;;;;;;;21.41;41.67;95306.81;4212900;28;20051;-74
2023/10/06 11:33:39;;;;;;;10.80;5.65;;;;;;;21.42;40.73;95308.47;4222105;28;20116;-74
2023/10/06 11:35:42;;;;;;;13.10;5.85;;;;;;;21.45;40.40;95313.38;4220651;28;20069;-75
2023/10/06 11:37:46;;;;;;;9.65;5.63;;;;;;;21.46;40.16;95309.69;4213592;28;20089;-74
2023/10/06 11:39:51;;;;;;;10.85;5.65;;;;;;;21.33;40.38;95304.38;4217213;28;20048;-77
2023/10/06 11:41:55;;;;;;;12.75;5.80;;;;;;;21.20;40.76;95308.72;4193933;28;20194;-74
2023/10/06 11:43:58;;;;;;;11.50;5.10;;;;;;;21.21;40.45;95302.38;4200118;28;20376;-74
2023/10/06 11:46:07;;;;;;;9.13;5.40;;;;;;;21.30;40.15;95312.81;4222887;28;20494;-74
2023/10/06 11:48:24;;;;;;;9.18;5.43;;;;;;;21.23;40.10;95307.47;4193885;28;20131;-75
2023/10/06 11:50:32;;;;;;;20.45;8.80;;;;;;;20.61;40.86;95307.03;4222375;28;20066;-74
2023/10/06 11:52:35;;;;;;;9.95;5.32;;;;;;;20.44;40.17;95312.72;4210145;28;20687;-75
2023/10/06 11:54:40;;;;;;;12.05;5.40;;;;;;;20.35;41.09;95305.13;4208906;28;20133;-74
2023/10/06 11:56:53;;;;;;;16.92;6.55;;;;;;;20.32;40.02;95309.03;4225518;28;20479;-74
2023/10/06 11:58:55;;;;;;;11.18;5.50;;;;;;;20.22;40.11;95319.28;4215962;28;20498;-75
2023/10/06 12:00:57;;;;;;;13.75;6.18;;;;;;;20.12;40.46;95310.88;4229601;28;20059;-74
2023/10/06 12:03:00;;;;;;;8.60;6.00;;;;;;;20.20;40.25;95308.84;4223050;28;20130;-73
2023/10/06 12:05:13;;;;;;;9.93;5.50;;;;;;;20.05;40.25;95319.66;4227039;28;20776;-75
2023/10/06 12:07:22;;;;;;;8.63;5.32;;;;;;;19.69;40.72;95319.97;4209637;28;20055;-75
2023/10/06 12:09:29;;;;;;;9.57;4.40;;;;;;;19.92;40.97;95314.34;4239307;28;20068;-74
2023/10/06 12:11:31;;;;;;;10.18;5.15;;;;;;;19.88;40.20;95329.06;4223828;28;20055;-76
2023/10/06 12:13:36;;;;;;;8.75;5.25;;;;;;;20.07;40.19;95330.13;4228820;28;20112;-75
2023/10/06 12:15:38;;;;;;;10.07;6.03;;;;;;;19.82;40.37;95320.03;4211184;28;20059;-75
2023/10/06 12:17:41;;;;;;;8.30;5.78;;;;;;;19.79;40.35;95322.28;4211467;28;20710;-74
2023/10/06 12:19:43;;;;;;;9.20;5.20;;;;;;;19.59;40.63;95325.66;4228745;28;20467;-71
2023/10/06 12:21:46;;;;;;;10.20;5.47;;;;;;;19.55;40.73;95332.41;4228802;28;20054;-76
2023/10/06 12:23:48;;;;;;;9.35;4.72;;;;;;;19.47;40.36;95332.59;4199651;28;20090;-74
2023/10/06 12:25:55;;;;;;;10.05;5.32;;;;;;;19.48;40.84;95328.91;4225775;28;20043;-74
2023/10/06 12:27:59;;;;;;;6.47;4.47;;;;;;;19.41;41.32;95330.72;4204196;28;20534;-74
2023/10/06 12:30:06;;;;;;;11.68;5.00;;;;;;;19.47;41.07;95326.44;4229492;28;20051;-75
2023/10/06 12:32:11;;;;;;;9.07;4.50;;;;;;;19.38;41.41;95318.66;4210945;28;20059;-73
2023/10/06 12:34:15;;;;;;;12.40;4.90;;;;;;;19.47;41.51;95326.44;4210909;28;20083;-72
2023/10/06 12:36:18;;;;;;;15.60;5.28;;;;;;;19.74;41.43;95317.56;4227786;28;20113;-74
2023/10/06 12:38:22;;;;;;;11.63;4.50;;;;;;;20.02;40.99;95312.06;4228696;28;20106;-75
2023/10/06 12:40:26;;;;;;;9.23;4.90;;;;;;;20.17;40.81;95313.75;4194235;28;20045;-75
2023/10/06 12:42:31;;;;;;;9.65;4.55;;;;;;;20.38;40.06;95313.53;4191121;28;20071;-75
2023/10/06 12:44:39;;;;;;;7.82;4.50;;;;;;;20.63;39.76;95318.28;4224473;28;20487;-75
2023/10/06 12:46:42;;;;;;;6.20;4.20;;;;;;;20.91;39.44;95314.53;4228423;28;20368;-75
2023/10/06 12:48:46;;;;;;;14.30;4.97;;;;;;;21.08;39.08;95310.41;4222281;28;20066;-72
2023/10/06 12:50:49;;;;;;;9.18;5.30;;;;;;;21.04;39.13;95312.66;4222330;28;20105;-74
2023/10/06 12:52:55;;;;;;;8.85;4.60;;;;;;;20.70;39.88;95320.94;4223718;28;20056;-71
2023/10/06 12:54:57;;;;;;;9.98;4.35;;;;;;;21.02;39.44;95312.06;4227693;28;20059;-74
2023/10/06 12:56:59;;;;;;;9.32;4.07;;;;;;;21.31;39.29;95301.91;4209387;28;20052;-74
2023/10/06 12:59:01;;;;;;;18.02;4.80;;;;;;;21.58;38.34;95297.31;4229259;28;20058;-75
2023/10/06 13:01:07;;;;;;;9.38;4.13;;;;;;;21.82;37.87;95292.28;4226353;28;20047;-75
2023/10/06 13:03:30;;;;;;;10.60;4.00;;;;;;;22.14;37.53;95294.94;4224787;28;20422;-75
2023/10/06 13:05:33;;;;;;;5.93;4.15;;;;;;;22.40;37.53;95293.94;4228646;28;20381;-73
2023/10/06 13:07:37;;;;;;;14.60;4.90;;;;;;;22.59;36.93;95286.78;4228034;28;20423;-73
2023/10/06 13:09:39;;;;;;;10.35;4.30;;;;;;;22.77;37.10;95294.81;4228552;28;20444;-74
2023/10/06 13:11:44;;;;;;;9.63;4.75;;;;;;;22.93;37.06;95287.25;4226985;28;20130;-76
2023/10/06 13:13:49;;;;;;;10.35;4.32;;;;;;;23.06;36.86;95290.66;4211341;28;20594;-73
2023/10/06 13:15:52;;;;;;;9.73;4.68;;;;;;;23.17;36.70;95280.28;4228868;28;20062;-73
2023/10/06 13:17:54;;;;;;;9.73;4.75;;;;;;;23.19;36.37;95281.69;4227484;28;20112;-74
2023/10/06 13:19:57;;;;;;;11.57;4.57;;;;;;;23.01;36.22;95273.66;4223235;28;20096;-74
2023/10/06 13:21:59;;;;;;;7.78;3.83;;;;;;;22.95;35.84;95283.34;4210051;28;20746;-73
2023/10/06 13:24:05;;;;;;;8.40;4.05;;;;;;;22.95;35.70;95269.16;4215817;28;20402;-75
2023/10/06 13:26:11;;;;;;;14.02;4.85;;;;;;;23.02;35.98;95278.78;4228327;28;20098;-76
2023/10/06 13:28:32;;;;;;;9.95;4.20;;;;;;;23.02;35.21;95269.97;4224962;28;20047;-74
2023/10/06 13:30:34;;;;;;;6.53;3.45;;;;;;;22.95;35.10;95266.50;4222488;28;20067;-75
2023/10/06 13:32:37;;;;;;;5.93;3.80;;;;;;;22.78;35.17;95274.25;4210428;28;20088;-74
2023/10/06 13:34:39;;;;;;;7.43;3.23;;;;;;;22.70;35.00;95267.38;4223530;28;20387;-73
2023/10/06 13:36:42;;;;;;;6.07;3.40;;;;;;;22.56;35.71;95273.88;4223621;28;20067;-76
2023/10/06 13:38:45;;;;;;;16.00;5.10;;;;;;;22.12;35.75;95267.66;4206037;28;20079;-74
2023/10/06 13:40:48;;;;;;;9.82;3.83;;;;;;;21.68;36.79;95279.03;4227007;28;20449;-76
2023/10/06 13:42:50;;;;;;;6.18;3.67;;;;;;;21.59;37.19;95266.94;4188296;28;20523;-74
2023/10/06 13:44:52;;;;;;;8.40;3.88;;;;;;;21.50;37.64;95262.91;4223172;28;20075;-73
2023/10/06 13:46:55;;;;;;;8.60;4.57;;;;;;;21.56;37.68;95267.38;4210020;28;20445;-72
2023/10/06 13:48:59;;;;;;;12.00;4.47;;;;;;;21.42;37.97;95268.47;4221977;28;20544;-75
2023/10/06 13:51:02;;;;;;;7.05;3.40;;;;;;;21.30;37.54;95262.97;4208452;28;20526;-75
2023/10/06 13:53:04;;;;;;;6.75;4.18;;;;;;;21.29;38.02;95269.31;4220672;28;20054;-75
2023/10/06 13:55:09;;;;;;;12.27;3.83;;;;;;;21.21;38.37;95264.25;4224115;28;20125;-73
2023/10/06 13:57:11;;;;;;;7.93;3.50;;;;;;;21.08;38.56;95265.13;4224748;28;20083;-75
2023/10/06 13:59:24;;;;;;;6.78;3.58;;;;;;;21.07;38.84;95268.81;4196114;28;20508;-73
2023/10/06 14:01:27;;;;;;;7.82;4.28;;;;;;;20.88;39.08;95265.16;4211860;28;20285;-73
2023/10/06 14:03:30;;;;;;;6.78;3.95;;;;;;;21.09;38.83;95265.94;4219821;28;20044;-73
2023/10/06 14:05:34;;;;;;;10.18;4.50;;;;;;;21.34;38.61;95255.34;4227146;28;20058;-77
2023/10/06 14:07:37;;;;;;;7.63;3.58;;;;;;;21.64;37.84;95259.16;4227015;28;20477;-73
2023/10/06 14:09:40;;;;;;;6.05;3.85;;;;;;;21.66;37.87;95264.25;4219947;28;20419;-74
2023/10/06 14:11:43;;;;;;;;;;;;;;;21.93;37.48;95253.41;4218642;28;20059;-73
2023/10/06 14:13:48;;;;;;;7.78;4.15;;;;;;;22.18;37.30;95259.59;4221427;28;19952;-74
2023/10/06 14:18:03;;;;;;;6.28;3.63;;;;;;;22.58;36.57;95261.94;4215854;28;20056;-75
2023/10/06 14:20:10;;;;;;;11.85;4.05;;;;;;;22.83;36.08;95259.22;4224085;28;20064;-74
2023/10/06 14:22:12;;;;;;;7.07;4.00;;;;;;;23.04;36.38;95258.00;4213994;28;20054;-75
2023/10/06 14:24:16;;;;;;;8.50;3.80;;;;;;;23.23;36.09;95250.78;4223545;28;20092;-76
2023/10/06 14:26:18;;;;;;;6.32;4.13;;;;;;;23.42;35.51;95251.56;4225695;28;20062;-74
2023/10/06 14:28:23;;;;;;;6.35;3.78;;;;;;;23.60;35.12;95256.06;4207366;28;20051;-75
2023/10/06 14:30:28;;;;;;;6.88;3.72;;;;;;;23.63;34.85;95249.44;4227665;28;20104;-76
2023/10/06 14:32:42;;;;;;;6.85;4.13;;;;;;;23.44;35.04;95259.34;4226464;28;20051;-73
2023/10/06 14:34:58;;;;;;;9.02;5.43;;;;;;;23.15;35.49;95260.97;4227740;28;20051;-77
2023/10/06 14:37:01;;;;;;;7.45;4.03;;;;;;;23.24;35.61;95262.28;4225768;28;20047;-73
2023/10/06 14:46:14;;;;;;;8.52;4.05;;;;;;;23.15;34.78;95264.44;4209436;28;20083;-76
2023/10/06 14:48:17;;;;;;;7.80;4.68;;;;;;;22.83;35.53;95255.75;4192751;28;20090;-75
2023/10/06 14:50:20;;;;;;;10.35;4.20;;;;;;;22.59;35.95;95263.56;4205925;28;20051;-73
2023/10/06 14:52:24;;;;;;;10.25;4.13;;;;;;;22.35;36.36;95261.72;4226301;28;20127;-74
2023/10/06 14:54:31;;;;;;;12.00;4.30;;;;;;;22.11;36.70;95271.34;4190179;28;20052;-73
2023/10/06 14:56:34;;;;;;;7.95;4.50;;;;;;;22.00;36.82;95263.00;4225795;28;20495;-72
2023/10/06 14:58:36;;;;;;;9.38;4.32;;;;;;;21.84;36.71;95268.88;4216366;28;20139;-74
2023/10/06 15:00:39;;;;;;;8.35;3.70;;;;;;;21.77;37.14;95265.41;4210618;28;20051;-73
2023/10/06 15:02:47;;;;;;;7.00;3.90;;;;;;;21.73;37.34;95267.72;4227078;28;20052;-72
2023/10/06 15:04:52;;;;;;;8.13;4.32;;;;;;;21.66;37.21;95278.41;4217758;28;20487;-75
2023/10/06 15:06:54;;;;;;;11.80;4.72;;;;;;;21.45;37.44;95270.75;4206983;28;20105;-72
2023/10/06 15:08:58;;;;;;;11.18;4.28;;;;;;;21.21;38.03;95280.25;4225453;28;20048;-75
2023/10/06 15:11:02;;;;;;;11.57;4.30;;;;;;;21.17;38.22;95287.03;4226507;28;20048;-77
2023/10/06 15:13:04;;;;;;;10.48;4.97;;;;;;;21.26;38.27;95289.22;4207749;28;20063;-73
2023/10/06 15:15:13;;;;;;;18.58;4.75;;;;;;;20.64;38.89;95306.59;4227216;28;20059;-74
2023/10/06 15:17:19;;;;;;;14.38;4.32;;;;;;;20.20;39.96;95314.16;4187281;28;20056;-74
2023/10/06 15:19:24;;;;;;;13.70;4.55;;;;;;;20.27;40.08;95298.19;4230698;28;20052;-72
2023/10/06 15:21:27;;;;;;;15.93;7.45;;;;;;;19.94;40.87;95300.81;4228246;28;20058;-72
2023/10/06 15:23:30;;;;;;;8.27;5.43;;;;;;;19.73;41.54;95302.63;4229713;28;20424;-73
2023/10/06 15:25:35;;;;;;;13.30;5.80;;;;;;;19.88;41.42;95302.47;4225351;28;20044;-74
2023/10/06 15:27:40;;;;;;;10.55;4.15;;;;;;;19.80;41.72;95310.63;4228683;28;20074;-76
2023/10/06 15:29:43;;;;;;;12.80;5.90;;;;;;;19.53;42.49;95305.22;4230179;28;20375;-75
2023/10/06 15:31:49;;;;;;;16.05;5.80;;;;;;;19.39;42.87;95319.47;4205766;28;20424;-73
2023/10/06 15:33:51;;;;;;;11.73;4.88;;;;;;;19.35;43.03;95318.22;4225205;28;20092;-75
2023/10/06 15:36:01;;;;;;;10.57;5.15;;;;;;;19.12;43.44;95323.84;4229233;28;20146;-72
2023/10/06 15:38:10;;;;;;;15.80;5.68;;;;;;;19.18;43.71;95328.34;4210665;28;20055;-75
2023/10/06 15:40:20;;;;;;;17.02;5.13;;;;;;;19.22;43.34;95332.25;4209146;28;20059;-75
2023/10/06 15:42:22;;;;;;;15.50;5.25;;;;;;;19.35;43.51;95327.00;4213490;28;20113;-75
2023/10/06 15:44:26;;;;;;;11.60;5.30;;;;;;;19.40;43.45;95329.06;4218184;28;20065;-73
2023/10/06 15:46:32;;;;;;;12.25;5.10;;;;;;;19.36;43.30;95328.66;4211359;28;20101;-74
2023/10/06 15:48:34;;;;;;;9.50;4.50;;;;;;;19.12;43.81;95332.63;4218707;28;20442;-72
2023/10/06 15:50:37;;;;;;;11.02;5.03;;;;;;;19.09;44.07;95338.31;4227640;28;20054;-75
2023/10/06 15:52:39;;;;;;;12.30;4.90;;;;;;;19.17;44.02;95346.13;4230215;28;20083;-73
2023/10/06 15:54:41;;;;;;;13.48;4.85;;;;;;;19.18;44.02;95334.47;4209702;28;20447;-74
2023/10/06 15:56:46;;;;;;;7.57;4.00;;;;;;;19.33;43.59;95341.50;4225463;28;20083;-71
2023/10/06 15:58:49;;;;;;;10.00;4.57;;;;;;;19.38;43.46;95337.25;4200252;28;20075;-75
2023/10/06 16:00:50;;;;;;;10.23;4.40;;;;;;;19.42;43.47;95337.66;4229182;28;20158;-75
2023/10/06 16:02:55;;;;;;;15.85;4.38;;;;;;;19.48;43.55;95342.19;4223250;28;20106;-74
2023/10/06 16:04:59;;;;;;;9.60;4.80;;;;;;;19.62;43.16;95338.56;4225810;28;20059;-75
2023/10/06 16:07:03;;;;;;;17.35;4.88;;;;;;;19.70;42.90;95340.22;4227382;28;20495;-73
2023/10/06 16:09:07;;;;;;;8.38;4.43;;;;;;;19.77;42.78;95340.28;4207573;28;20535;-73
2023/10/06 16:11:10;;;;;;;13.52;4.20;;;;;;;19.81;42.82;95345.00;4207216;28;20119;-73
2023/10/06 16:13:13;;;;;;;9.63;4.40;;;;;;;19.87;42.71;95343.34;4212706;28;20055;-74
2023/10/06 16:15:15;;;;;;;8.57;4.13;;;;;;;19.93;42.75;95345.22;4221125;28;20047;-73
2023/10/06 16:17:17;;;;;;;9.55;4.63;;;;;;;19.91;42.84;95343.78;4218299;28;20059;-73
2023/10/06 16:19:19;;;;;;;13.02;4.70;;;;;;;19.89;42.70;95343.16;4229237;28;20071;-73
2023/10/06 16:21:21;;;;;;;19.27;4.55;;;;;;;19.90;42.88;95344.81;4208436;28;20056;-74
2023/10/06 16:23:29;;;;;;;9.95;4.50;;;;;;;19.89;42.76;95351.13;4201588;28;20213;-76
2023/10/06 16:25:33;;;;;;;14.13;4.45;;;;;;;19.89;42.91;95357.25;4226602;28;20079;-75
2023/10/06 16:27:36;;;;;;;13.52;4.60;;;;;;;19.88;42.88;95360.97;4210233;28;20197;-73
2023/10/06 16:29:38;;;;;;;10.70;4.20;;;;;;;19.89;42.85;95362.59;4226920;28;20658;-74
2023/10/06 16:31:41;;;;;;;8.68;4.35;;;;;;;19.90;42.85;95361.59;4210675;28;20481;-72
2023/10/06 16:33:43;;;;;;;7.85;4.18;;;;;;;19.87;42.76;95364.63;4227591;28;20052;-73
2023/10/06 16:35:45;;;;;;;13.25;5.13;;;;;;;19.88;42.67;95376.91;4226458;28;20061;-72
2023/10/06 16:37:47;;;;;;;17.58;4.97;;;;;;;19.86;42.84;95376.28;4222417;28;20062;-75
2023/10/06 16:39:49;;;;;;;9.90;4.60;;;;;;;19.81;42.93;95376.06;4210444;28;20439;-73
2023/10/06 16:41:53;;;;;;;12.88;4.85;;;;;;;19.79;42.89;95378.13;4227917;28;20113;-72
2023/10/06 16:43:56;;;;;;;16.42;4.30;;;;;;;19.76;42.86;95381.97;4228712;28;20784;-74
2023/10/06 16:46:08;;;;;;;12.20;4.30;;;;;;;19.73;42.90;95384.22;4195578;28;20131;-73
2023/10/06 16:48:11;;;;;;;12.77;4.05;;;;;;;19.69;43.11;95390.94;4210273;28;20465;-72
2023/10/06 16:50:13;;;;;;;9.60;4.15;;;;;;;19.60;43.24;95385.78;4227053;28;20403;-73
2023/10/06 16:52:18;;;;;;;15.20;4.15;;;;;;;19.60;43.29;95387.63;4224793;28;20134;-74
2023/10/06 16:54:21;;;;;;;10.00;4.07;;;;;;;19.60;43.30;95396.41;4222037;28;20475;-72
2023/10/06 16:56:22;;;;;;;16.15;4.72;;;;;;;19.57;43.53;95396.78;4224321;28;20091;-71
2023/10/06 16:58:26;;;;;;;10.27;4.60;;;;;;;19.57;43.56;95402.09;4223884;28;20108;-73
2023/10/06 17:00:28;;;;;;;8.65;4.53;;;;;;;19.52;43.47;95404.53;4209688;28;20063;-73
2023/10/06 17:02:31;;;;;;;13.52;4.38;;;;;;;19.46;43.60;95404.50;4209030;28;20537;-73
2023/10/06 17:04:37;;;;;;;8.35;4.60;;;;;;;19.43;43.80;95413.72;4194539;28;20128;-72
2023/10/06 17:06:39;;;;;;;15.07;4.85;;;;;;;19.44;43.93;95412.69;4182771;28;20103;-73
2023/10/06 17:08:44;;;;;;;10.88;4.00;;;;;;;19.44;43.86;95418.00;4202754;28;20101;-72
2023/10/06 17:10:46;;;;;;;10.20;5.05;;;;;;;19.43;44.04;95424.34;4227041;28;20059;-73
2023/10/06 17:12:48;;;;;;;16.42;5.00;;;;;;;19.43;43.98;95425.16;4209106;28;20445;-71
2023/10/06 17:14:53;;;;;;;12.20;4.57;;;;;;;19.44;43.83;95426.81;4208394;28;20510;-74
2023/10/06 17:16:56;;;;;;;11.38;4.53;;;;;;;19.46;44.03;95425.78;4227527;28;20131;-71
2023/10/06 17:18:57;;;;;;;6.93;4.30;;;;;;;19.44;44.08;95425.97;4192991;28;20135;-72
2023/10/06 17:20:59;;;;;;;9.50;4.70;;;;;;;19.43;44.19;95432.31;4209964;28;20052;-72
2023/10/06 17:23:02;;;;;;;8.02;4.55;;;;;;;19.39;44.20;95433.72;4191299;28;20144;-72
2023/10/06 17:25:07;;;;;;;10.88;4.63;;;;;;;19.40;44.04;95428.22;4225485;28;20043;-72
2023/10/06 17:27:14;;;;;;;9.48;4.45;;;;;;;19.38;44.33;95438.22;4208533;28;20139;-73
2023/10/06 17:29:16;;;;;;;11.38;4.57;;;;;;;19.34;44.21;95438.81;4226526;28;20079;-73
2023/10/06 17:31:18;;;;;;;9.52;5.43;;;;;;;19.30;44.50;95440.19;4193053;28;20060;-75
2023/10/06 17:33:20;;;;;;;13.05;4.65;;;;;;;19.26;44.66;95438.94;4210034;28;20052;-74
2023/10/06 17:35:22;;;;;;;10.45;4.78;;;;;;;19.22;44.74;95447.28;4209757;28;20098;-76
2023/10/06 17:37:25;;;;;;;9.65;4.43;;;;;;;19.10;44.82;95438.25;4225648;28;20090;-71
2023/10/06 17:39:33;;;;;;;11.48;4.43;;;;;;;19.08;45.05;95444.72;4214927;28;20079;-75
2023/10/06 17:41:35;;;;;;;8.93;4.50;;;;;;;19.03;44.98;95447.97;4208524;28;20059;-74
2023/10/06 17:43:39;;;;;;;8.05;4.15;;;;;;;18.99;45.16;95452.03;4226992;28;20059;-73
2023/10/06 17:45:42;;;;;;;7.05;3.80;;;;;;;18.94;45.14;95446.47;4222658;28;20060;-75
2023/10/06 17:47:45;;;;;;;8.13;4.28;;;;;;;18.89;45.38;95448.91;4226277;28;20044;-73
2023/10/06 17:49:49;;;;;;;10.63;4.25;;;;;;;18.87;45.40;95454.41;4208847;28;20135;-73
2023/10/06 17:51:52;;;;;;;11.00;4.30;;;;;;;18.86;45.55;95450.09;4221965;28;20142;-74
2023/10/06 17:53:56;;;;;;;8.82;4.47;;;;;;;18.86;45.47;95451.94;4209407;28;20427;-73
2023/10/06 17:56:00;;;;;;;9.63;4.15;;;;;;;18.82;45.43;95462.94;4206138;28;20064;-73
2023/10/06 17:58:03;;;;;;;10.10;4.32;;;;;;;18.74;45.70;95455.06;4208975;28;20129;-74
2023/10/06 18:00:10;;;;;;;11.02;4.43;;;;;;;18.75;45.66;95458.53;4227384;28;20059;-74
2023/10/06 18:02:13;;;;;;;10.52;3.70;;;;;;;18.66;45.84;95463.16;4206167;28;20064;-75
2023/10/06 18:04:15;;;;;;;6.80;4.22;;;;;;;18.66;45.86;95463.16;4216441;28;20055;-71
2023/10/06 18:06:19;;;;;;;10.05;4.70;;;;;;;18.68;45.93;95460.34;4223427;28;20055;-74
2023/10/06 18:08:23;;;;;;;11.30;4.28;;;;;;;18.69;45.86;95468.13;4225480;28;20435;-73
2023/10/06 18:10:25;;;;;;;16.85;4.40;;;;;;;18.67;45.79;95467.47;4208203;28;20048;-74
2023/10/06 18:12:28;;;;;;;13.35;4.68;;;;;;;18.56;46.14;95475.94;4225756;28;20055;-74
2023/10/06 18:14:30;;;;;;;6.15;3.88;;;;;;;18.52;46.00;95472.00;4223840;28;20421;-75
2023/10/06 18:16:33;;;;;;;14.65;4.30;;;;;;;18.53;46.20;95481.63;4207712;28;20083;-73
2023/10/06 18:18:36;;;;;;;6.55;4.10;;;;;;;18.55;46.21;95476.94;4227876;28;20071;-73
2023/10/06 18:20:40;;;;;;;7.88;3.67;;;;;;;18.54;46.07;95475.28;4193026;28;20056;-73
2023/10/06 18:22:42;;;;;;;7.50;3.83;;;;;;;18.48;46.28;95479.53;4225635;28;20062;-74
2023/10/06 18:24:45;;;;;;;7.70;4.40;;;;;;;18.37;46.44;95477.41;4207145;28;20044;-73
2023/10/06 18:26:48;;;;;;;10.77;3.92;;;;;;;18.26;46.65;95475.22;4224971;28;20314;-73
2023/10/06 18:28:49;;;;;;;7.22;4.18;;;;;;;18.24;46.74;95479.88;4226883;28;20786;-74
2023/10/06 18:30:52;;;;;;;6.93;3.80;;;;;;;18.20;46.67;95471.50;4226831;28;20059;-72
2023/10/06 18:32:54;;;;;;;6.88;4.03;;;;;;;18.22;46.68;95472.13;4206615;28;21323;-73
2023/10/06 18:34:56;;;;;;;10.18;4.13;;;;;;;18.24;46.50;95475.41;4226950;28;20043;-74
2023/10/06 18:36:58;;;;;;;9.18;4.10;;;;;;;18.19;46.71;95478.59;4191282;28;20048;-74
2023/10/06 18:39:03;;;;;;;9.93;3.97;;;;;;;18.20;46.77;95479.44;4210695;28;20443;-72
2023/10/06 18:41:06;;;;;;;11.38;4.03;;;;;;;18.17;46.71;95483.28;4217088;28;20052;-73
2023/10/06 18:43:09;;;;;;;7.70;4.05;;;;;;;18.10;46.81;95482.38;4208025;28;20059;-73
2023/10/06 18:45:12;;;;;;;9.15;4.03;;;;;;;18.13;46.85;95481.19;4225133;28;20059;-75
2023/10/06 18:47:15;;;;;;;8.10;3.30;;;;;;;18.16;46.57;95478.19;4226423;28;20130;-74
2023/10/06 18:49:17;;;;;;;5.97;3.53;;;;;;;18.15;46.83;95479.16;4222853;28;20514;-71
2023/10/06 18:51:20;;;;;;;12.80;3.42;;;;;;;18.08;46.86;95486.25;4208884;28;20568;-73
2023/10/06 18:53:22;;;;;;;8.77;3.80;;;;;;;17.99;46.91;95482.88;4210714;28;20052;-72
2023/10/06 18:55:24;;;;;;;16.45;4.05;;;;;;;17.94;47.19;95488.75;4223943;28;20513;-71
2023/10/06 18:57:26;;;;;;;6.43;3.33;;;;;;;17.92;47.23;95482.81;4189404;28;20060;-74
2023/10/06 18:59:28;;;;;;;9.10;3.90;;;;;;;17.96;47.20;95483.22;4190989;28;20052;-73
2023/10/06 19:01:34;;;;;;;10.35;3.85;;;;;;;17.87;47.49;95485.16;4208252;28;20158;-73
2023/10/06 19:03:37;;;;;;;10.20;3.75;;;;;;;17.88;47.43;95489.47;4222426;28;20066;-74
2023/10/06 19:05:43;;;;;;;8.40;3.78;;;;;;;17.79;47.55;95486.06;4206616;28;20075;-73
2023/10/06 19:07:45;;;;;;;8.07;3.80;;;;;;;17.84;47.58;95490.84;4208101;28;20076;-72
2023/10/06 19:09:49;;;;;;;6.13;3.40;;;;;;;17.79;47.48;95493.22;4205422;28;20550;-74
2023/10/06 19:11:53;;;;;;;9.18;4.18;;;;;;;17.77;47.63;95489.91;4223427;28;20456;-72
2023/10/06 19:13:54;;;;;;;10.02;3.75;;;;;;;17.76;47.68;95498.88;4213415;28;20044;-72
2023/10/06 19:15:58;;;;;;;9.00;3.55;;;;;;;17.76;47.85;95501.50;4206538;28;20044;-72
2023/10/06 19:18:00;;;;;;;8.85;3.85;;;;;;;17.76;47.87;95497.03;4225035;28;20070;-73
2023/10/06 19:20:07;;;;;;;7.13;3.17;;;;;;;17.70;47.78;95492.50;4225037;28;20085;-71
2023/10/06 19:22:10;;;;;;;6.80;3.70;;;;;;;17.69;48.03;95490.81;4208500;28;20147;-72
2023/10/06 19:24:12;;;;;;;8.10;3.90;;;;;;;17.69;47.90;95501.44;4225881;28;20055;-73
2023/10/06 19:26:19;;;;;;;11.27;4.20;;;;;;;17.59;48.07;95492.94;4225741;28;20284;-76
2023/10/06 19:28:23;;;;;;;7.43;4.15;;;;;;;17.60;48.25;95490.09;4224056;28;20075;-72
2023/10/06 19:30:24;;;;;;;5.43;3.45;;;;;;;17.65;47.81;95491.38;4205643;28;20059;-74
2023/10/06 19:32:27;;;;;;;9.52;4.10;;;;;;;17.65;48.05;95497.50;4208094;28;20534;-72